createdAt,value
2023-02-12T00:02:17.348Z,102699.69
2023-02-12T00:04:45.192Z,102691.47
2023-02-12T00:07:15.646Z,102664.22
2023-02-12T00:09:45.606Z,102693.66
2023-02-12T00:12:13.460Z,102651.13
2023-02-12T00:14:41.262Z,102688.34
2023-02-12T00:17:13.134Z,102678.41
2023-02-12T00:19:42.167Z,102669.88
2023-02-12T00:22:09.872Z,102661.72
2023-02-12T00:24:41.652Z,102656.69
2023-02-12T00:27:09.392Z,102655.63
2023-02-12T00:29:38.386Z,102655.25
2023-02-12T00:32:10.513Z,102658.50
2023-02-12T00:34:38.450Z,102609.38
2023-02-12T00:37:07.922Z,102638.38
2023-02-12T00:39:39.988Z,102631.50
2023-02-12T00:42:08.126Z,102640.84
2023-02-12T00:44:36.014Z,102640.56
2023-02-12T00:47:08.271Z,102636.97
2023-02-12T00:49:35.986Z,102638.91
2023-02-12T00:52:05.045Z,102629.59
2023-02-12T00:54:37.781Z,102637.94
2023-02-12T00:57:07.664Z,102649.44
2023-02-12T00:59:36.481Z,102643.72
2023-02-12T01:02:06.446Z,102641.09
2023-02-12T01:04:36.548Z,102643.25
2023-02-12T01:07:04.462Z,102599.38
2023-02-12T01:09:34.058Z,102637.63
2023-02-12T01:12:07.449Z,102640.47
2023-02-12T01:14:35.235Z,102607.22
2023-02-12T01:17:02.922Z,102645.88
2023-02-12T01:19:34.832Z,102612.19
2023-02-12T01:22:04.243Z,102643.06
2023-02-12T01:24:32.215Z,102618.72
2023-02-12T01:27:05.412Z,102645.75
2023-02-12T01:29:33.192Z,102647.47
2023-02-12T01:32:00.904Z,102641.53
2023-02-12T01:34:33.143Z,102650.53
2023-02-12T01:37:00.849Z,102645.88
2023-02-12T01:39:28.661Z,102657.25
2023-02-12T01:42:00.414Z,102655.09
2023-02-12T01:44:32.269Z,102658.97
2023-02-12T01:47:06.296Z,102648.56
2023-02-12T01:49:38.736Z,102660.97
2023-02-12T01:52:16.327Z,102641.22
2023-02-12T01:54:44.632Z,102649.63
2023-02-12T01:57:15.749Z,102652.81
2023-02-12T01:59:49.514Z,102644.78
2023-02-12T02:02:17.894Z,102641.88
2023-02-12T02:04:49.651Z,102634.59
2023-02-12T02:07:21.560Z,102623.72
2023-02-12T02:09:49.703Z,102616.16
2023-02-12T02:12:37.173Z,102619.75
2023-02-12T02:15:09.880Z,102623.94
2023-02-12T02:17:53.023Z,102626.47
2023-02-12T02:20:56.644Z,102634.44
2023-02-12T02:24:02.235Z,102624.97
2023-02-12T02:26:50.646Z,102619.69
2023-02-12T02:29:42.496Z,102607.00
2023-02-12T02:32:19.309Z,102596.69
2023-02-12T02:34:58.176Z,102594.31
2023-02-12T02:37:33.429Z,102585.50
2023-02-12T02:40:12.278Z,102583.91
2023-02-12T02:42:48.109Z,102588.63
2023-02-12T02:45:22.109Z,102599.47
2023-02-12T02:47:56.841Z,102587.63
2023-02-12T02:50:27.531Z,102594.31
2023-02-12T02:53:00.555Z,102603.50
2023-02-12T02:55:33.697Z,102605.41
2023-02-12T02:58:10.294Z,102599.31
2023-02-12T03:00:45.402Z,102603.09
2023-02-12T03:03:22.118Z,102607.81
2023-02-12T03:05:58.182Z,102594.34
2023-02-12T03:08:34.202Z,102591.72
2023-02-12T03:11:13.179Z,102588.50
2023-02-12T03:13:44.450Z,102557.25
2023-02-12T03:16:19.717Z,102589.00
2023-02-12T03:18:54.489Z,102533.47
2023-02-12T03:21:36.712Z,102588.78
2023-02-12T03:24:16.395Z,102583.63
2023-02-12T03:26:52.268Z,102583.31
2023-02-12T03:29:20.048Z,102578.38
2023-02-12T03:31:59.184Z,102563.88
2023-02-12T03:34:36.499Z,102566.75
2023-02-12T03:37:12.488Z,102553.28
2023-02-12T03:39:50.571Z,102553.25
2023-02-12T03:42:29.498Z,102522.59
2023-02-12T03:45:00.884Z,102549.69
2023-02-12T03:47:40.630Z,102551.28
2023-02-12T03:50:14.772Z,102560.59
2023-02-12T03:52:47.546Z,102563.38
2023-02-12T03:55:16.904Z,102569.44
2023-02-12T03:57:52.239Z,102552.31
2023-02-12T04:00:22.175Z,102541.53
2023-02-12T04:02:53.201Z,102532.53
2023-02-12T04:05:24.372Z,102530.72
2023-02-12T04:07:57.203Z,102531.84
2023-02-12T04:10:33.832Z,102543.50
2023-02-12T04:13:14.644Z,102535.81
2023-02-12T04:15:57.757Z,102525.59
2023-02-12T04:18:34.567Z,102491.25
2023-02-12T04:21:13.143Z,102538.16
2023-02-12T04:23:50.969Z,102529.88
2023-02-12T04:26:26.032Z,102525.41
2023-02-12T04:29:08.259Z,102533.19
2023-02-12T04:31:45.677Z,102494.13
2023-02-12T04:34:21.192Z,102527.94
2023-02-12T04:36:55.838Z,102523.06
2023-02-12T04:39:31.841Z,102535.75
2023-02-12T04:42:00.562Z,102525.97
2023-02-12T04:44:32.910Z,102534.50
2023-02-12T04:47:03.301Z,102525.88
2023-02-12T04:49:30.899Z,102528.16
2023-02-12T04:52:02.199Z,102515.16
2023-02-12T04:54:32.241Z,102512.13
2023-02-12T04:57:00.362Z,102508.50
2023-02-12T04:59:30.607Z,102500.66
2023-02-12T05:02:00.222Z,102499.69
2023-02-12T05:04:30.156Z,102495.25
2023-02-12T05:06:57.852Z,102483.81
2023-02-12T05:09:28.705Z,102486.97
2023-02-12T05:11:58.651Z,102438.28
2023-02-12T05:14:26.741Z,102472.69
2023-02-12T05:16:56.349Z,102458.53
2023-02-12T05:19:26.487Z,102458.53
2023-02-12T05:21:54.280Z,102459.31
2023-02-12T05:24:24.332Z,102451.88
2023-02-12T05:26:55.211Z,102448.31
2023-02-12T05:29:22.951Z,102410.06
2023-02-12T05:31:52.660Z,102420.41
2023-02-12T05:34:22.637Z,102433.13
2023-02-12T05:36:50.423Z,102413.13
2023-02-12T05:39:20.346Z,102435.66
2023-02-12T05:41:50.204Z,102420.47
2023-02-12T05:44:19.308Z,102408.44
2023-02-12T05:46:48.968Z,102418.41
2023-02-12T05:49:18.995Z,102416.38
2023-02-12T05:51:46.699Z,102419.00
2023-02-12T05:54:16.357Z,102426.78
2023-02-12T05:56:48.185Z,102396.63
2023-02-12T05:59:20.039Z,102415.75
2023-02-12T06:01:52.813Z,102428.44
2023-02-12T06:04:25.440Z,102431.56
2023-02-12T06:06:56.729Z,102429.00
2023-02-12T06:09:25.113Z,102427.28
2023-02-12T06:11:55.265Z,102428.47
2023-02-12T06:14:25.188Z,102420.06
2023-02-12T06:16:54.293Z,102422.41
2023-02-12T06:19:24.190Z,102428.84
2023-02-12T06:21:54.182Z,102424.88
2023-02-12T06:24:21.903Z,102431.56
2023-02-12T06:26:53.794Z,102425.72
2023-02-12T06:29:24.260Z,102394.03
2023-02-12T06:31:52.008Z,102420.56
2023-02-12T06:34:23.152Z,102417.91
2023-02-12T06:36:51.359Z,102419.16
2023-02-12T06:39:19.210Z,102421.22
2023-02-12T06:41:46.909Z,102424.50
2023-02-12T06:44:18.956Z,102403.72
2023-02-12T06:46:46.837Z,102420.81
2023-02-12T06:49:16.257Z,102418.97
2023-02-12T06:51:50.827Z,102380.38
2023-02-12T06:54:19.395Z,102415.53
2023-02-12T06:56:47.240Z,102406.06
2023-02-12T06:59:19.115Z,102389.81
2023-02-12T07:01:46.837Z,102395.06
2023-02-12T07:04:16.818Z,102405.34
2023-02-12T07:06:47.823Z,102397.72
2023-02-12T07:09:17.812Z,102398.50
2023-02-12T07:11:45.493Z,102400.34
2023-02-12T07:14:18.283Z,102395.34
2023-02-12T07:16:48.251Z,102385.94
2023-02-12T07:19:16.477Z,102394.00
2023-02-12T07:21:47.666Z,102395.06
2023-02-12T07:24:18.382Z,102386.94
2023-02-12T07:26:46.198Z,102388.63
2023-02-12T07:29:14.471Z,102387.16
2023-02-12T07:31:44.437Z,102389.75
2023-02-12T07:34:12.757Z,102354.47
2023-02-12T07:36:40.678Z,102367.84
2023-02-12T07:39:12.896Z,102402.66
2023-02-12T07:41:40.576Z,102397.13
2023-02-12T07:44:14.627Z,102392.72
2023-02-12T07:46:47.823Z,102388.56
2023-02-12T07:49:22.238Z,102385.53
2023-02-12T07:51:50.864Z,102320.38
2023-02-12T07:54:25.857Z,102380.06
2023-02-12T07:56:53.578Z,102368.56
2023-02-12T07:59:21.667Z,102328.41
2023-02-12T08:01:55.453Z,102366.78
2023-02-12T08:04:25.670Z,102364.41
2023-02-12T08:06:58.594Z,102357.75
2023-02-12T08:09:30.833Z,102351.28
2023-02-12T08:11:59.659Z,102333.69
2023-02-12T08:14:27.936Z,102324.41
2023-02-12T08:16:55.889Z,102334.00
2023-02-12T08:19:26.886Z,102328.84
2023-02-12T08:21:56.060Z,102322.25
2023-02-12T08:24:24.200Z,102321.50
2023-02-12T08:26:53.834Z,102319.78
2023-02-12T08:29:24.240Z,102324.97
2023-02-12T08:31:55.885Z,102315.88
2023-02-12T08:34:25.378Z,102290.84
2023-02-12T08:36:55.339Z,102306.00
2023-02-12T08:39:23.730Z,102277.00
2023-02-12T08:41:55.002Z,102298.75
2023-02-12T08:44:23.244Z,102297.09
2023-02-12T08:46:57.517Z,102303.03
2023-02-12T08:49:27.170Z,102292.97
2023-02-12T08:52:04.300Z,102314.41
2023-02-12T08:54:32.873Z,102267.97
2023-02-12T08:57:04.559Z,102337.31
2023-02-12T08:59:34.729Z,102338.41
2023-02-12T09:02:04.098Z,102336.91
2023-02-12T09:04:37.810Z,102336.03
2023-02-12T09:07:05.557Z,102327.72
2023-02-12T09:09:33.255Z,102336.28
2023-02-12T09:12:05.169Z,102323.78
2023-02-12T09:14:32.858Z,102329.84
2023-02-12T09:17:00.603Z,102332.78
2023-02-12T09:19:28.517Z,102323.50
2023-02-12T09:21:57.152Z,102326.06
2023-02-12T09:24:25.665Z,102321.81
2023-02-12T09:26:54.024Z,102308.41
2023-02-12T09:29:23.137Z,102303.25
2023-02-12T09:31:50.979Z,102322.25
2023-02-12T09:34:19.334Z,102314.66
2023-02-12T09:36:47.138Z,102302.69
2023-02-12T09:39:14.865Z,102297.81
2023-02-12T09:42:00.278Z,102270.38
2023-02-12T09:44:40.836Z,102304.63
2023-02-12T09:47:16.441Z,102296.16
2023-02-12T09:50:10.347Z,102294.69
2023-02-12T09:52:43.047Z,102283.34
2023-02-12T09:55:15.748Z,102283.00
2023-02-12T09:57:49.065Z,102284.47
2023-02-12T10:00:25.185Z,102243.28
2023-02-12T10:03:04.950Z,102276.19
2023-02-12T10:05:37.354Z,102275.25
2023-02-12T10:08:35.020Z,102261.56
2023-02-12T10:11:21.399Z,102261.69
2023-02-12T10:14:03.160Z,102260.78
2023-02-12T10:16:44.267Z,102261.63
2023-02-12T10:19:26.792Z,102258.03
2023-02-12T10:22:06.004Z,102257.38
2023-02-12T10:25:05.606Z,102255.66
2023-02-12T10:27:40.961Z,102257.38
2023-02-12T10:30:21.811Z,102250.63
2023-02-12T10:32:54.343Z,102242.16
2023-02-12T10:35:25.917Z,102236.34
2023-02-12T10:37:59.199Z,102225.53
2023-02-12T10:40:31.972Z,102233.16
2023-02-12T10:43:03.629Z,102226.44
2023-02-12T10:45:35.679Z,102226.47
2023-02-12T10:48:10.954Z,102224.75
2023-02-12T10:50:46.113Z,102223.09
2023-02-12T10:53:21.546Z,102228.84
2023-02-12T10:55:51.520Z,102197.84
2023-02-12T10:58:24.299Z,102213.38
2023-02-12T11:01:04.110Z,102214.50
2023-02-12T11:03:35.971Z,102209.31
2023-02-12T11:06:16.757Z,102215.25
2023-02-12T11:08:45.875Z,102215.41
2023-02-12T11:11:16.853Z,102212.75
2023-02-12T11:13:56.726Z,102200.03
2023-02-12T11:16:33.590Z,102209.28
2023-02-12T11:19:05.389Z,102201.56
2023-02-12T11:21:34.228Z,102202.44
2023-02-12T11:24:32.558Z,102205.84
2023-02-12T11:27:22.998Z,102207.63
2023-02-12T11:30:05.933Z,102207.78
2023-02-12T11:32:33.681Z,102205.03
2023-02-12T11:35:10.260Z,102197.22
2023-02-12T11:37:43.203Z,102182.78
2023-02-12T11:40:20.161Z,102205.13
2023-02-12T11:42:52.403Z,102202.59
2023-02-12T11:45:22.536Z,102192.56
2023-02-12T11:47:51.655Z,102184.81
2023-02-12T11:50:26.430Z,102182.31
2023-02-12T11:52:57.609Z,102172.03
2023-02-12T11:55:32.292Z,102176.34
2023-02-12T11:58:05.408Z,102183.19
2023-02-12T12:00:38.604Z,102176.38
2023-02-12T12:03:14.339Z,102179.94
2023-02-12T12:05:48.413Z,102173.03
2023-02-12T12:08:24.401Z,102173.97
2023-02-12T12:11:02.871Z,102183.22
2023-02-12T12:13:34.897Z,102139.56
2023-02-12T12:16:29.132Z,102180.63
2023-02-12T12:19:18.982Z,102179.00
2023-02-12T12:22:00.199Z,102173.81
2023-02-12T12:24:36.186Z,102154.25
2023-02-12T12:27:47.816Z,102178.25
2023-02-12T12:30:23.179Z,102188.38
2023-02-12T12:32:55.253Z,102181.44
2023-02-12T12:35:39.376Z,102178.88
2023-02-12T12:38:21.027Z,102184.94
2023-02-12T12:41:03.817Z,102187.56
2023-02-12T12:43:46.976Z,102155.88
2023-02-12T12:46:41.817Z,102166.97
2023-02-12T12:49:34.078Z,102177.31
2023-02-12T12:52:19.174Z,102172.28
2023-02-12T12:55:09.880Z,102172.28
2023-02-12T12:57:47.618Z,102164.59
2023-02-12T13:00:46.644Z,102167.94
2023-02-12T13:03:46.321Z,102173.84
2023-02-12T13:06:33.062Z,102167.81
2023-02-12T13:09:12.368Z,102173.97
2023-02-12T13:11:55.372Z,102173.94
2023-02-12T13:14:34.647Z,102174.00
2023-02-12T13:17:14.783Z,102173.03
2023-02-12T13:19:56.515Z,102170.38
2023-02-12T13:22:37.602Z,102182.34
2023-02-12T13:25:16.237Z,102170.44
2023-02-12T13:27:51.848Z,102178.97
2023-02-12T13:30:23.289Z,102180.59
2023-02-12T13:33:04.455Z,102169.44
2023-02-12T13:35:34.050Z,102167.72
2023-02-12T13:38:04.827Z,102169.47
2023-02-12T13:40:34.681Z,102181.31
2023-02-12T13:43:19.281Z,102184.78
2023-02-12T13:45:56.305Z,102182.16
2023-02-12T13:48:41.111Z,102192.44
2023-02-12T13:51:20.361Z,102190.69
2023-02-12T13:54:00.530Z,102180.38
2023-02-12T13:56:43.397Z,102188.13
2023-02-12T13:59:43.179Z,102184.69
2023-02-12T14:02:49.614Z,102176.06
2023-02-12T14:05:33.141Z,102174.31
2023-02-12T14:08:07.351Z,102172.66
2023-02-12T14:10:39.270Z,102164.88
2023-02-12T14:13:18.683Z,102181.97
2023-02-12T14:15:51.816Z,102174.25
2023-02-12T14:18:32.274Z,102171.53
2023-02-12T14:21:39.670Z,102176.72
2023-02-12T14:24:53.824Z,102171.50
2023-02-12T14:27:30.442Z,102169.03
2023-02-12T14:30:05.162Z,102178.31
2023-02-12T14:33:00.494Z,102180.69
2023-02-12T14:35:38.921Z,102185.72
2023-02-12T14:39:04.976Z,102184.28
2023-02-12T14:41:37.882Z,102181.66
2023-02-12T14:44:38.886Z,102187.72
2023-02-12T14:47:16.250Z,102176.38
2023-02-12T14:49:49.916Z,102188.34
2023-02-12T14:52:22.527Z,102185.84
2023-02-12T14:54:52.882Z,102189.94
2023-02-12T14:57:27.140Z,102194.88
2023-02-12T15:00:00.763Z,102194.06
2023-02-12T15:02:33.365Z,102196.63
2023-02-12T15:05:08.625Z,102195.69
2023-02-12T15:07:45.258Z,102139.97
2023-02-12T15:10:18.516Z,102168.25
2023-02-12T15:12:53.571Z,102195.69
2023-02-12T15:15:30.798Z,102192.13
2023-02-12T15:18:07.898Z,102199.00
2023-02-12T15:20:46.049Z,102198.19
2023-02-12T15:23:40.012Z,102201.38
2023-02-12T15:26:13.787Z,102199.50
2023-02-12T15:28:42.784Z,102170.66
2023-02-12T15:31:11.925Z,102197.03
2023-02-12T15:33:45.990Z,102209.72
2023-02-12T15:36:20.620Z,102195.88
2023-02-12T15:38:52.470Z,102200.91
2023-02-12T15:41:28.270Z,102208.97
2023-02-12T15:43:56.715Z,102206.50
2023-02-12T15:46:24.819Z,102205.03
2023-02-12T15:48:55.427Z,102209.44
2023-02-12T15:51:33.634Z,102207.38
2023-02-12T15:54:05.212Z,102201.91
2023-02-12T15:56:33.918Z,102209.41
2023-02-12T15:59:03.342Z,102212.03
2023-02-12T16:01:33.730Z,102213.72
2023-02-12T16:04:04.370Z,102210.94
2023-02-12T16:06:34.641Z,102204.03
2023-02-12T16:09:08.551Z,102200.50
2023-02-12T16:11:39.152Z,102195.19
2023-02-12T16:14:20.646Z,102195.88
2023-02-12T16:16:52.856Z,102191.19
2023-02-12T16:19:23.398Z,102201.50
2023-02-12T16:21:55.084Z,102197.75
2023-02-12T16:24:31.570Z,102183.69
2023-02-12T16:27:03.134Z,102183.81
2023-02-12T16:29:35.039Z,102170.78
2023-02-12T16:32:04.520Z,102178.09
2023-02-12T16:34:38.750Z,102177.38
2023-02-12T16:37:43.451Z,102195.84
2023-02-12T16:40:27.251Z,102204.06
2023-02-12T16:42:59.566Z,102198.69
2023-02-12T16:45:37.982Z,102182.53
2023-02-12T16:48:16.046Z,102196.41
2023-02-12T16:50:52.755Z,102177.44
2023-02-12T16:53:37.145Z,102184.03
2023-02-12T16:56:06.607Z,102204.97
2023-02-12T16:58:34.295Z,102214.31
2023-02-12T17:01:05.359Z,102218.50
2023-02-12T17:03:38.227Z,102221.31
2023-02-12T17:06:06.393Z,102222.91
2023-02-12T17:08:35.992Z,102223.97
2023-02-12T17:11:03.959Z,102218.69
2023-02-12T17:13:31.660Z,102178.59
2023-02-12T17:16:01.580Z,102211.38
2023-02-12T17:18:34.738Z,102209.81
2023-02-12T17:21:06.026Z,102197.56
2023-02-12T17:23:39.430Z,102216.47
2023-02-12T17:26:08.367Z,102211.44
2023-02-12T17:28:38.234Z,102226.00
2023-02-12T17:31:08.252Z,102222.75
2023-02-12T17:33:35.976Z,102231.34
2023-02-12T17:36:06.320Z,102235.69
2023-02-12T17:38:37.159Z,102233.19
2023-02-12T17:41:11.760Z,102239.34
2023-02-12T17:43:41.360Z,102248.94
2023-02-12T17:46:11.065Z,102245.19
2023-02-12T17:48:40.364Z,102237.44
2023-02-12T17:51:10.101Z,102228.81
2023-02-12T17:53:39.368Z,102235.69
2023-02-12T17:56:12.000Z,102225.53
2023-02-12T17:58:40.159Z,102224.69
2023-02-12T18:01:17.145Z,102223.75
2023-02-12T18:03:47.344Z,102204.78
2023-02-12T18:06:23.835Z,102198.09
2023-02-12T18:08:53.391Z,102236.16
2023-02-12T18:11:23.505Z,102233.53
2023-02-12T18:13:53.655Z,102225.31
2023-02-12T18:16:22.012Z,102225.97
2023-02-12T18:19:31.623Z,102232.41
2023-02-12T18:21:59.450Z,102235.53
2023-02-12T18:24:30.822Z,102235.94
2023-02-12T18:26:58.615Z,102232.34
2023-02-12T18:29:26.448Z,102238.47
2023-02-12T18:31:56.575Z,102234.03
2023-02-12T18:34:24.960Z,102242.63
2023-02-12T18:36:52.769Z,102246.91
2023-02-12T18:39:20.547Z,102258.81
2023-02-12T18:41:49.808Z,102269.09
2023-02-12T18:44:17.598Z,102267.31
2023-02-12T18:46:45.578Z,102262.28
2023-02-12T18:49:17.948Z,102266.38
2023-02-12T18:51:50.046Z,102258.81
2023-02-12T18:54:17.818Z,102235.06
2023-02-12T18:56:50.103Z,102259.72
2023-02-12T18:59:22.722Z,102273.66
2023-02-12T19:01:51.875Z,102277.81
2023-02-12T19:04:23.937Z,102271.56
2023-02-12T19:06:55.984Z,102268.91
2023-02-12T19:09:27.259Z,102274.41
2023-02-12T19:11:59.239Z,102273.56
2023-02-12T19:14:30.194Z,102249.50
2023-02-12T19:16:57.980Z,102255.97
2023-02-12T19:19:26.933Z,102260.50
2023-02-12T19:21:56.893Z,102258.47
2023-02-12T19:24:25.402Z,102264.81
2023-02-12T19:26:56.482Z,102269.50
2023-02-12T19:29:24.875Z,102277.09
2023-02-12T19:31:53.969Z,102268.63
2023-02-12T19:34:24.915Z,102270.09
2023-02-12T19:36:54.952Z,102261.50
2023-02-12T19:39:24.801Z,102256.50
2023-02-12T19:41:52.929Z,102262.31
2023-02-12T19:44:24.467Z,102258.19
2023-02-12T19:46:55.017Z,102268.00
2023-02-12T19:49:26.877Z,102270.41
2023-02-12T19:51:54.773Z,102270.50
2023-02-12T19:54:24.265Z,102267.94
2023-02-12T19:56:55.246Z,102268.63
2023-02-12T19:59:28.140Z,102268.41
2023-02-12T20:01:58.965Z,102276.19
2023-02-12T20:04:26.914Z,102270.78
2023-02-12T20:06:54.926Z,102266.53
2023-02-12T20:09:23.509Z,102269.47
2023-02-12T20:11:51.557Z,102250.72
2023-02-12T20:14:22.863Z,102258.50
2023-02-12T20:16:51.471Z,102265.31
2023-02-12T20:19:27.198Z,102261.00
2023-02-12T20:21:57.628Z,102248.22
2023-02-12T20:24:26.442Z,102242.47
2023-02-12T20:27:02.335Z,102245.13
2023-02-12T20:29:30.066Z,102243.25
2023-02-12T20:31:58.118Z,102248.47
2023-02-12T20:34:27.745Z,102247.44
2023-02-12T20:36:55.583Z,102246.88
2023-02-12T20:39:24.366Z,102236.38
2023-02-12T20:41:52.190Z,102240.66
2023-02-12T20:44:23.671Z,102242.50
2023-02-12T20:46:57.289Z,102236.63
2023-02-12T20:49:26.046Z,102222.34
2023-02-12T20:51:55.559Z,102197.34
2023-02-12T20:54:23.534Z,102216.66
2023-02-12T20:56:51.973Z,102234.75
2023-02-12T20:59:20.275Z,102235.66
2023-02-12T21:01:48.128Z,102245.38
2023-02-12T21:04:19.886Z,102238.44
2023-02-12T21:06:49.824Z,102239.19
2023-02-12T21:09:19.832Z,102246.03
2023-02-12T21:11:48.495Z,102244.34
2023-02-12T21:14:40.126Z,102245.25
2023-02-12T21:17:10.007Z,102245.06
2023-02-12T21:19:40.968Z,102232.28
2023-02-12T21:22:08.691Z,102233.03
2023-02-12T21:24:40.284Z,102231.34
2023-02-12T21:27:11.588Z,102229.44
2023-02-12T21:29:39.450Z,102229.41
2023-02-12T21:32:09.145Z,102218.91
2023-02-12T21:34:36.893Z,102228.44
2023-02-12T21:37:04.624Z,102232.44
2023-02-12T21:39:36.599Z,102237.19
2023-02-12T21:42:05.850Z,102238.16
2023-02-12T21:44:35.345Z,102234.53
2023-02-12T21:47:03.296Z,102238.06
2023-02-12T21:49:31.056Z,102229.41
2023-02-12T21:52:03.057Z,102225.81
2023-02-12T21:54:31.775Z,102227.22
2023-02-12T21:57:00.046Z,102215.44
2023-02-12T21:59:32.451Z,102234.81
2023-02-12T22:02:03.732Z,102232.47
2023-02-12T22:04:33.774Z,102233.28
2023-02-12T22:07:03.406Z,102232.06
2023-02-12T22:09:33.770Z,102239.16
2023-02-12T22:12:01.707Z,102239.84
2023-02-12T22:14:31.110Z,102244.66
2023-02-12T22:17:00.959Z,102242.88
2023-02-12T22:19:28.972Z,102228.34
2023-02-12T22:21:56.787Z,102236.59
2023-02-12T22:24:26.618Z,102244.09
2023-02-12T22:26:55.345Z,102242.81
2023-02-12T22:29:23.921Z,102241.03
2023-02-12T22:31:55.287Z,102247.06
2023-02-12T22:34:23.290Z,102241.81
2023-02-12T22:36:51.047Z,102244.59
2023-02-12T22:39:20.682Z,102246.22
2023-02-12T22:41:50.576Z,102242.31
2023-02-12T22:44:20.825Z,102242.78
2023-02-12T22:46:51.312Z,102230.22
2023-02-12T22:49:22.329Z,102232.69
2023-02-12T22:51:50.076Z,102229.47
2023-02-12T22:54:23.093Z,102233.13
2023-02-12T22:56:52.227Z,102229.72
2023-02-12T22:59:20.094Z,102227.59
2023-02-12T23:01:51.947Z,102219.56
2023-02-12T23:04:21.204Z,102222.91
2023-02-12T23:06:49.363Z,102226.97
2023-02-12T23:09:23.660Z,102222.56
2023-02-12T23:11:51.361Z,102227.78
2023-02-12T23:14:19.686Z,102224.38
2023-02-12T23:16:54.471Z,102220.38
2023-02-12T23:19:23.913Z,102218.22
2023-02-12T23:21:53.781Z,102218.69
2023-02-12T23:24:26.498Z,102218.03
2023-02-12T23:26:54.477Z,102219.06
2023-02-12T23:29:22.407Z,102218.91
2023-02-12T23:31:54.478Z,102220.91
2023-02-12T23:34:23.647Z,102224.00
2023-02-12T23:36:51.333Z,102221.53
2023-02-12T23:39:23.014Z,102221.53
2023-02-12T23:41:50.939Z,102217.03
2023-02-12T23:44:21.569Z,102214.03
2023-02-12T23:46:53.978Z,102219.22
2023-02-12T23:49:23.055Z,102209.22
2023-02-12T23:51:50.818Z,102211.00
2023-02-12T23:54:22.471Z,102208.53
2023-02-12T23:56:50.236Z,102207.72
2023-02-12T23:59:17.992Z,102201.28
